sensor_id;sensor_type;location;lat;lon;timestamp;P1;P2;P0
75812;PMS7003;64450;51.168;16.900;2022-11-09T00:01:27;16;12;8
75812;PMS7003;64450;51.168;16.900;2022-11-09T00:04:29;16;13;9
75812;PMS7003;64450;51.168;16.900;2022-11-09T00:07:38;17;14;10
75812;PMS7003;64450;51.168;16.900;2022-11-09T00:10:39;10;10;8
75812;PMS7003;64450;51.168;16.900;2022-11-09T00:13:40;18;10;7
75812;PMS7003;64450;51.168;16.900;2022-11-09T00:16:42;17;13;8
75812;PMS7003;64450;51.168;16.900;2022-11-09T00:19:43;20;12;8
75812;PMS7003;64450;51.168;16.900;2022-11-09T00:22:47;13;13;8
75812;PMS7003;64450;51.168;16.900;2022-11-09T00:25:53;10;10;7
75812;PMS7003;64450;51.168;16.900;2022-11-09T00:28:59;12;10;5
75812;PMS7003;64450;51.168;16.900;2022-11-09T00:32:00;20;17;9
75812;PMS7003;64450;51.168;16.900;2022-11-09T00:35:00;17;15;9
75812;PMS7003;64450;51.168;16.900;2022-11-09T00:38:04;16;12;7
75812;PMS7003;64450;51.168;16.900;2022-11-09T00:41:06;12;10;7
75812;PMS7003;64450;51.168;16.900;2022-11-09T00:44:08;15;14;9
75812;PMS7003;64450;51.168;16.900;2022-11-09T00:47:09;20;14;7
75812;PMS7003;64450;51.168;16.900;2022-11-09T00:50:14;18;13;8
75812;PMS7003;64450;51.168;16.900;2022-11-09T00:53:15;18;17;11
75812;PMS7003;64450;51.168;16.900;2022-11-09T00:56:16;34;27;17
75812;PMS7003;64450;51.168;16.900;2022-11-09T00:59:17;23;23;13
75812;PMS7003;64450;51.168;16.900;2022-11-09T01:02:18;25;18;9
75812;PMS7003;64450;51.168;16.900;2022-11-09T01:05:19;24;16;10
75812;PMS7003;64450;51.168;16.900;2022-11-09T01:08:20;46;37;23
75812;PMS7003;64450;51.168;16.900;2022-11-09T01:11:30;24;18;10
75812;PMS7003;64450;51.168;16.900;2022-11-09T01:14:31;23;14;8
75812;PMS7003;64450;51.168;16.900;2022-11-09T01:17:32;13;13;9
75812;PMS7003;64450;51.168;16.900;2022-11-09T01:20:32;14;13;8
75812;PMS7003;64450;51.168;16.900;2022-11-09T01:23:34;12;11;7
75812;PMS7003;64450;51.168;16.900;2022-11-09T01:26:35;3;1;0
75812;PMS7003;64450;51.168;16.900;2022-11-09T01:29:36;9;5;1
75812;PMS7003;64450;51.168;16.900;2022-11-09T01:32:45;13;10;6
75812;PMS7003;64450;51.168;16.900;2022-11-09T01:35:46;15;13;8
75812;PMS7003;64450;51.168;16.900;2022-11-09T01:38:47;15;10;6
75812;PMS7003;64450;51.168;16.900;2022-11-09T01:41:49;11;9;6
75812;PMS7003;64450;51.168;16.900;2022-11-09T01:45:13;13;11;7
75812;PMS7003;64450;51.168;16.900;2022-11-09T01:48:11;14;11;7
75812;PMS7003;64450;51.168;16.900;2022-11-09T01:51:23;12;11;7
75812;PMS7003;64450;51.168;16.900;2022-11-09T01:54:29;8;8;5
75812;PMS7003;64450;51.168;16.900;2022-11-09T01:57:37;10;9;7
75812;PMS7003;64450;51.168;16.900;2022-11-09T02:00:43;17;12;8
75812;PMS7003;64450;51.168;16.900;2022-11-09T02:07:03;19;10;7
75812;PMS7003;64450;51.168;16.900;2022-11-09T02:13:18;9;8;6
75812;PMS7003;64450;51.168;16.900;2022-11-09T02:16:27;11;10;6
75812;PMS7003;64450;51.168;16.900;2022-11-09T02:19:30;10;10;6
75812;PMS7003;64450;51.168;16.900;2022-11-09T02:22:30;12;9;5
75812;PMS7003;64450;51.168;16.900;2022-11-09T02:25:33;13;9;6
75812;PMS7003;64450;51.168;16.900;2022-11-09T02:28:35;18;10;6
75812;PMS7003;64450;51.168;16.900;2022-11-09T02:31:50;12;10;7
75812;PMS7003;64450;51.168;16.900;2022-11-09T02:34:56;10;7;4
75812;PMS7003;64450;51.168;16.900;2022-11-09T02:37:57;10;6;4
75812;PMS7003;64450;51.168;16.900;2022-11-09T02:40:58;16;12;7
75812;PMS7003;64450;51.168;16.900;2022-11-09T02:43:59;9;9;5
75812;PMS7003;64450;51.168;16.900;2022-11-09T02:47:10;14;7;6
75812;PMS7003;64450;51.168;16.900;2022-11-09T02:50:10;8;8;5
75812;PMS7003;64450;51.168;16.900;2022-11-09T02:53:11;9;8;5
75812;PMS7003;64450;51.168;16.900;2022-11-09T02:56:12;14;12;8
75812;PMS7003;64450;51.168;16.900;2022-11-09T02:59:13;11;11;7
75812;PMS7003;64450;51.168;16.900;2022-11-09T03:02:13;13;12;8
75812;PMS7003;64450;51.168;16.900;2022-11-09T03:05:14;27;12;9
75812;PMS7003;64450;51.168;16.900;2022-11-09T03:08:25;11;9;5
75812;PMS7003;64450;51.168;16.900;2022-11-09T03:11:26;11;11;6
75812;PMS7003;64450;51.168;16.900;2022-11-09T03:14:27;19;10;6
75812;PMS7003;64450;51.168;16.900;2022-11-09T03:17:28;17;14;7
75812;PMS7003;64450;51.168;16.900;2022-11-09T03:20:30;12;9;6
75812;PMS7003;64450;51.168;16.900;2022-11-09T03:23:32;14;13;9
75812;PMS7003;64450;51.168;16.900;2022-11-09T03:26:33;17;14;10
75812;PMS7003;64450;51.168;16.900;2022-11-09T03:29:40;17;12;8
75812;PMS7003;64450;51.168;16.900;2022-11-09T03:32:41;15;11;8
75812;PMS7003;64450;51.168;16.900;2022-11-09T03:35:42;16;12;9
75812;PMS7003;64450;51.168;16.900;2022-11-09T03:38:43;12;11;8
75812;PMS7003;64450;51.168;16.900;2022-11-09T03:41:44;15;13;7
75812;PMS7003;64450;51.168;16.900;2022-11-09T03:44:45;11;10;5
75812;PMS7003;64450;51.168;16.900;2022-11-09T03:47:46;14;10;7
75812;PMS7003;64450;51.168;16.900;2022-11-09T03:50:56;11;11;7
75812;PMS7003;64450;51.168;16.900;2022-11-09T03:53:57;12;12;7
75812;PMS7003;64450;51.168;16.900;2022-11-09T03:56:57;8;6;3
75812;PMS7003;64450;51.168;16.900;2022-11-09T03:59:58;11;7;4
75812;PMS7003;64450;51.168;16.900;2022-11-09T04:02:59;14;9;7
75812;PMS7003;64450;51.168;16.900;2022-11-09T04:06:01;16;13;7
75812;PMS7003;64450;51.168;16.900;2022-11-09T04:09:02;18;10;6
75812;PMS7003;64450;51.168;16.900;2022-11-09T04:12:11;16;12;9
75812;PMS7003;64450;51.168;16.900;2022-11-09T04:15:12;19;10;7
75812;PMS7003;64450;51.168;16.900;2022-11-09T04:18:14;12;7;4
75812;PMS7003;64450;51.168;16.900;2022-11-09T04:21:16;12;10;7
75812;PMS7003;64450;51.168;16.900;2022-11-09T04:24:16;12;10;6
75812;PMS7003;64450;51.168;16.900;2022-11-09T04:27:17;14;10;6
75812;PMS7003;64450;51.168;16.900;2022-11-09T04:30:18;9;8;2
75812;PMS7003;64450;51.168;16.900;2022-11-09T04:33:27;17;13;7
75812;PMS7003;64450;51.168;16.900;2022-11-09T04:36:28;16;12;7
75812;PMS7003;64450;51.168;16.900;2022-11-09T04:39:29;9;8;6
75812;PMS7003;64450;51.168;16.900;2022-11-09T04:42:29;11;10;7
75812;PMS7003;64450;51.168;16.900;2022-11-09T04:45:31;15;9;6
75812;PMS7003;64450;51.168;16.900;2022-11-09T04:48:33;14;14;9
75812;PMS7003;64450;51.168;16.900;2022-11-09T04:51:34;11;10;8
75812;PMS7003;64450;51.168;16.900;2022-11-09T04:54:42;13;8;5
75812;PMS7003;64450;51.168;16.900;2022-11-09T04:57:43;11;10;5
75812;PMS7003;64450;51.168;16.900;2022-11-09T05:00:44;14;9;5
75812;PMS7003;64450;51.168;16.900;2022-11-09T05:03:45;11;8;7
75812;PMS7003;64450;51.168;16.900;2022-11-09T05:06:45;11;9;6
75812;PMS7003;64450;51.168;16.900;2022-11-09T05:09:46;14;12;7
75812;PMS7003;64450;51.168;16.900;2022-11-09T05:12:47;9;7;6
75812;PMS7003;64450;51.168;16.900;2022-11-09T05:15:59;19;10;6
75812;PMS7003;64450;51.168;16.900;2022-11-09T05:19:00;12;11;5
75812;PMS7003;64450;51.168;16.900;2022-11-09T05:22:01;10;10;6
75812;PMS7003;64450;51.168;16.900;2022-11-09T05:25:13;12;11;7
75812;PMS7003;64450;51.168;16.900;2022-11-09T05:28:14;10;8;5
75812;PMS7003;64450;51.168;16.900;2022-11-09T05:31:19;13;9;7
75812;PMS7003;64450;51.168;16.900;2022-11-09T05:34:20;19;13;8
75812;PMS7003;64450;51.168;16.900;2022-11-09T05:37:21;17;9;6
75812;PMS7003;64450;51.168;16.900;2022-11-09T05:40:22;13;11;7
75812;PMS7003;64450;51.168;16.900;2022-11-09T05:43:23;14;10;7
75812;PMS7003;64450;51.168;16.900;2022-11-09T05:46:23;13;12;7
75812;PMS7003;64450;51.168;16.900;2022-11-09T05:49:26;13;11;6
75812;PMS7003;64450;51.168;16.900;2022-11-09T05:52:35;12;11;7
75812;PMS7003;64450;51.168;16.900;2022-11-09T05:55:36;16;12;10
75812;PMS7003;64450;51.168;16.900;2022-11-09T05:58:37;18;13;7
75812;PMS7003;64450;51.168;16.900;2022-11-09T06:01:38;17;16;11
75812;PMS7003;64450;51.168;16.900;2022-11-09T06:04:39;14;14;8
75812;PMS7003;64450;51.168;16.900;2022-11-09T06:07:40;17;14;8
75812;PMS7003;64450;51.168;16.900;2022-11-09T06:10:41;18;14;10
75812;PMS7003;64450;51.168;16.900;2022-11-09T06:13:51;17;16;11
75812;PMS7003;64450;51.168;16.900;2022-11-09T06:16:52;17;14;9
75812;PMS7003;64450;51.168;16.900;2022-11-09T06:19:53;24;14;9
75812;PMS7003;64450;51.168;16.900;2022-11-09T06:22:54;14;13;10
75812;PMS7003;64450;51.168;16.900;2022-11-09T06:25:57;20;16;9
75812;PMS7003;64450;51.168;16.900;2022-11-09T06:28:59;20;13;8
75812;PMS7003;64450;51.168;16.900;2022-11-09T06:32:00;16;13;9
75812;PMS7003;64450;51.168;16.900;2022-11-09T06:35:06;18;15;9
75812;PMS7003;64450;51.168;16.900;2022-11-09T06:38:08;17;11;7
75812;PMS7003;64450;51.168;16.900;2022-11-09T06:41:10;12;10;7
75812;PMS7003;64450;51.168;16.900;2022-11-09T06:44:11;17;13;8
75812;PMS7003;64450;51.168;16.900;2022-11-09T06:47:12;13;11;8
75812;PMS7003;64450;51.168;16.900;2022-11-09T06:50:13;17;13;9
75812;PMS7003;64450;51.168;16.900;2022-11-09T06:53:14;12;10;7
75812;PMS7003;64450;51.168;16.900;2022-11-09T06:56:21;12;11;7
75812;PMS7003;64450;51.168;16.900;2022-11-09T06:59:22;13;10;7
75812;PMS7003;64450;51.168;16.900;2022-11-09T07:02:23;11;10;5
75812;PMS7003;64450;51.168;16.900;2022-11-09T07:05:23;15;14;8
75812;PMS7003;64450;51.168;16.900;2022-11-09T07:08:24;14;14;9
75812;PMS7003;64450;51.168;16.900;2022-11-09T07:11:25;15;15;10
75812;PMS7003;64450;51.168;16.900;2022-11-09T07:14:26;12;10;6
75812;PMS7003;64450;51.168;16.900;2022-11-09T07:17:37;13;11;7
75812;PMS7003;64450;51.168;16.900;2022-11-09T07:20:40;26;23;16
75812;PMS7003;64450;51.168;16.900;2022-11-09T07:23:41;19;17;12
75812;PMS7003;64450;51.168;16.900;2022-11-09T07:26:42;25;18;10
75812;PMS7003;64450;51.168;16.900;2022-11-09T07:29:43;26;23;15
75812;PMS7003;64450;51.168;16.900;2022-11-09T07:32:44;23;18;12
75812;PMS7003;64450;51.168;16.900;2022-11-09T07:35:45;17;16;9
75812;PMS7003;64450;51.168;16.900;2022-11-09T07:38:52;25;22;15
75812;PMS7003;64450;51.168;16.900;2022-11-09T07:41:53;27;20;15
75812;PMS7003;64450;51.168;16.900;2022-11-09T07:44:54;30;19;13
75812;PMS7003;64450;51.168;16.900;2022-11-09T07:47:56;26;19;15
75812;PMS7003;64450;51.168;16.900;2022-11-09T07:50:59;30;25;15
75812;PMS7003;64450;51.168;16.900;2022-11-09T07:54:00;30;26;18
75812;PMS7003;64450;51.168;16.900;2022-11-09T07:57:01;26;19;12
75812;PMS7003;64450;51.168;16.900;2022-11-09T08:00:08;24;19;11
75812;PMS7003;64450;51.168;16.900;2022-11-09T08:03:10;26;21;14
75812;PMS7003;64450;51.168;16.900;2022-11-09T08:06:11;23;17;11
75812;PMS7003;64450;51.168;16.900;2022-11-09T08:09:12;24;21;14
75812;PMS7003;64450;51.168;16.900;2022-11-09T08:12:12;19;15;10
75812;PMS7003;64450;51.168;16.900;2022-11-09T08:15:13;17;15;8
75812;PMS7003;64450;51.168;16.900;2022-11-09T08:18:15;21;18;9
75812;PMS7003;64450;51.168;16.900;2022-11-09T08:21:23;22;18;10
75812;PMS7003;64450;51.168;16.900;2022-11-09T08:24:24;21;18;13
75812;PMS7003;64450;51.168;16.900;2022-11-09T08:27:25;23;17;12
75812;PMS7003;64450;51.168;16.900;2022-11-09T08:30:30;16;15;12
75812;PMS7003;64450;51.168;16.900;2022-11-09T08:33:35;17;15;10
75812;PMS7003;64450;51.168;16.900;2022-11-09T08:36:44;21;19;11
75812;PMS7003;64450;51.168;16.900;2022-11-09T08:39:45;22;19;12
75812;PMS7003;64450;51.168;16.900;2022-11-09T08:42:46;28;23;16
75812;PMS7003;64450;51.168;16.900;2022-11-09T08:45:47;22;18;11
75812;PMS7003;64450;51.168;16.900;2022-11-09T08:48:48;18;13;10
75812;PMS7003;64450;51.168;16.900;2022-11-09T08:51:48;21;16;11
75812;PMS7003;64450;51.168;16.900;2022-11-09T08:54:50;27;22;15
75812;PMS7003;64450;51.168;16.900;2022-11-09T08:58:00;23;21;14
75812;PMS7003;64450;51.168;16.900;2022-11-09T09:01:07;28;19;13
75812;PMS7003;64450;51.168;16.900;2022-11-09T09:04:08;23;17;11
75812;PMS7003;64450;51.168;16.900;2022-11-09T09:07:09;22;19;11
75812;PMS7003;64450;51.168;16.900;2022-11-09T09:10:10;20;17;10
75812;PMS7003;64450;51.168;16.900;2022-11-09T09:13:22;19;16;12
75812;PMS7003;64450;51.168;16.900;2022-11-09T09:16:23;21;19;12
75812;PMS7003;64450;51.168;16.900;2022-11-09T09:19:23;18;18;12
75812;PMS7003;64450;51.168;16.900;2022-11-09T09:22:24;23;17;10
75812;PMS7003;64450;51.168;16.900;2022-11-09T09:25:25;19;17;10
75812;PMS7003;64450;51.168;16.900;2022-11-09T09:28:27;23;20;12
75812;PMS7003;64450;51.168;16.900;2022-11-09T09:31:28;22;19;14
75812;PMS7003;64450;51.168;16.900;2022-11-09T09:34:36;19;14;10
75812;PMS7003;64450;51.168;16.900;2022-11-09T09:37:37;19;16;11
75812;PMS7003;64450;51.168;16.900;2022-11-09T09:40:42;23;21;10
75812;PMS7003;64450;51.168;16.900;2022-11-09T09:43:48;24;17;10
75812;PMS7003;64450;51.168;16.900;2022-11-09T09:46:58;19;18;12
75812;PMS7003;64450;51.168;16.900;2022-11-09T09:50:09;20;19;12
75812;PMS7003;64450;51.168;16.900;2022-11-09T09:56:34;26;16;9
75812;PMS7003;64450;51.168;16.900;2022-11-09T09:59:40;32;25;15
75812;PMS7003;64450;51.168;16.900;2022-11-09T10:02:43;18;14;10
75812;PMS7003;64450;51.168;16.900;2022-11-09T10:09:06;26;19;13
75812;PMS7003;64450;51.168;16.900;2022-11-09T10:15:34;30;18;10
75812;PMS7003;64450;51.168;16.900;2022-11-09T10:22:09;32;27;17
75812;PMS7003;64450;51.168;16.900;2022-11-09T10:25:22;27;23;16
75812;PMS7003;64450;51.168;16.900;2022-11-09T10:28:25;23;19;12
75812;PMS7003;64450;51.168;16.900;2022-11-09T10:31:31;22;21;12
75812;PMS7003;64450;51.168;16.900;2022-11-09T10:34:39;21;17;11
75812;PMS7003;64450;51.168;16.900;2022-11-09T10:37:49;20;15;10
75812;PMS7003;64450;51.168;16.900;2022-11-09T10:41:05;15;14;9
75812;PMS7003;64450;51.168;16.900;2022-11-09T10:44:15;20;17;11
75812;PMS7003;64450;51.168;16.900;2022-11-09T10:47:17;16;15;9
75812;PMS7003;64450;51.168;16.900;2022-11-09T10:53:33;17;12;8
75812;PMS7003;64450;51.168;16.900;2022-11-09T10:56:34;17;13;8
75812;PMS7003;64450;51.168;16.900;2022-11-09T10:59:52;17;14;10
75812;PMS7003;64450;51.168;16.900;2022-11-09T11:02:56;20;19;11
75812;PMS7003;64450;51.168;16.900;2022-11-09T11:06:01;17;15;10
75812;PMS7003;64450;51.168;16.900;2022-11-09T11:12:16;15;12;7
75812;PMS7003;64450;51.168;16.900;2022-11-09T11:18:32;13;12;7
75812;PMS7003;64450;51.168;16.900;2022-11-09T11:21:35;16;13;10
75812;PMS7003;64450;51.168;16.900;2022-11-09T11:28:02;19;18;11
75812;PMS7003;64450;51.168;16.900;2022-11-09T11:34:18;28;22;13
75812;PMS7003;64450;51.168;16.900;2022-11-09T11:40:40;22;19;12
75812;PMS7003;64450;51.168;16.900;2022-11-09T11:59:53;23;19;11
75812;PMS7003;64450;51.168;16.900;2022-11-09T12:12:59;14;12;7
75812;PMS7003;64450;51.168;16.900;2022-11-09T12:16:12;16;15;9
75812;PMS7003;64450;51.168;16.900;2022-11-09T12:19:33;17;15;9
75812;PMS7003;64450;51.168;16.900;2022-11-09T12:29:04;28;26;14
75812;PMS7003;64450;51.168;16.900;2022-11-09T12:32:16;31;27;15
75812;PMS7003;64450;51.168;16.900;2022-11-09T12:38:36;29;19;12
75812;PMS7003;64450;51.168;16.900;2022-11-09T12:41:44;21;21;13
75812;PMS7003;64450;51.168;16.900;2022-11-09T12:48:05;25;21;12
75812;PMS7003;64450;51.168;16.900;2022-11-09T12:51:15;16;15;10
75812;PMS7003;64450;51.168;16.900;2022-11-09T12:54:20;20;17;12
75812;PMS7003;64450;51.168;16.900;2022-11-09T12:57:24;18;17;9
75812;PMS7003;64450;51.168;16.900;2022-11-09T13:03:51;21;17;10
75812;PMS7003;64450;51.168;16.900;2022-11-09T13:13:24;25;18;10
75812;PMS7003;64450;51.168;16.900;2022-11-09T13:25:56;19;18;11
75812;PMS7003;64450;51.168;16.900;2022-11-09T13:38:37;16;13;9
75812;PMS7003;64450;51.168;16.900;2022-11-09T13:41:42;23;22;14
75812;PMS7003;64450;51.168;16.900;2022-11-09T13:44:43;26;22;14
75812;PMS7003;64450;51.168;16.900;2022-11-09T13:47:50;34;25;14
75812;PMS7003;64450;51.168;16.900;2022-11-09T13:50:52;28;25;18
75812;PMS7003;64450;51.168;16.900;2022-11-09T13:53:56;30;28;16
75812;PMS7003;64450;51.168;16.900;2022-11-09T13:57:04;34;28;18
75812;PMS7003;64450;51.168;16.900;2022-11-09T14:00:13;29;23;15
75812;PMS7003;64450;51.168;16.900;2022-11-09T14:03:23;25;25;14
75812;PMS7003;64450;51.168;16.900;2022-11-09T14:06:30;30;21;14
75812;PMS7003;64450;51.168;16.900;2022-11-09T14:12:55;32;22;12
75812;PMS7003;64450;51.168;16.900;2022-11-09T14:22:43;30;28;16
75812;PMS7003;64450;51.168;16.900;2022-11-09T14:25:44;25;18;13
75812;PMS7003;64450;51.168;16.900;2022-11-09T14:28:56;32;27;16
75812;PMS7003;64450;51.168;16.900;2022-11-09T14:32:00;22;21;12
75812;PMS7003;64450;51.168;16.900;2022-11-09T14:38:27;32;24;14
75812;PMS7003;64450;51.168;16.900;2022-11-09T14:41:31;24;21;15
75812;PMS7003;64450;51.168;16.900;2022-11-09T14:44:32;29;24;17
75812;PMS7003;64450;51.168;16.900;2022-11-09T14:47:51;30;23;13
75812;PMS7003;64450;51.168;16.900;2022-11-09T14:50:57;25;21;15
75812;PMS7003;64450;51.168;16.900;2022-11-09T14:54:01;30;26;17
75812;PMS7003;64450;51.168;16.900;2022-11-09T14:57:16;23;18;11
75812;PMS7003;64450;51.168;16.900;2022-11-09T15:03:27;18;17;12
75812;PMS7003;64450;51.168;16.900;2022-11-09T15:06:29;31;22;15
75812;PMS7003;64450;51.168;16.900;2022-11-09T15:12:46;23;20;13
75812;PMS7003;64450;51.168;16.900;2022-11-09T15:15:50;32;28;15
75812;PMS7003;64450;51.168;16.900;2022-11-09T15:18:52;24;23;14
75812;PMS7003;64450;51.168;16.900;2022-11-09T15:21:53;22;21;14
75812;PMS7003;64450;51.168;16.900;2022-11-09T15:24:54;28;21;13
75812;PMS7003;64450;51.168;16.900;2022-11-09T15:28:01;30;24;15
75812;PMS7003;64450;51.168;16.900;2022-11-09T15:31:10;14;13;9
75812;PMS7003;64450;51.168;16.900;2022-11-09T15:37:27;28;26;17
75812;PMS7003;64450;51.168;16.900;2022-11-09T15:40:31;24;20;10
75812;PMS7003;64450;51.168;16.900;2022-11-09T15:43:31;21;18;11
75812;PMS7003;64450;51.168;16.900;2022-11-09T15:49:42;21;15;10
75812;PMS7003;64450;51.168;16.900;2022-11-09T15:52:48;23;22;13
75812;PMS7003;64450;51.168;16.900;2022-11-09T15:55:50;23;19;12
75812;PMS7003;64450;51.168;16.900;2022-11-09T15:58:51;14;14;9
75812;PMS7003;64450;51.168;16.900;2022-11-09T16:01:52;26;21;12
75812;PMS7003;64450;51.168;16.900;2022-11-09T16:04:53;16;13;7
75812;PMS7003;64450;51.168;16.900;2022-11-09T16:07:54;22;19;12
75812;PMS7003;64450;51.168;16.900;2022-11-09T16:10:55;21;16;10
75812;PMS7003;64450;51.168;16.900;2022-11-09T16:14:03;24;17;11
75812;PMS7003;64450;51.168;16.900;2022-11-09T16:17:04;25;20;13
75812;PMS7003;64450;51.168;16.900;2022-11-09T16:20:06;25;19;12
75812;PMS7003;64450;51.168;16.900;2022-11-09T16:23:07;27;19;11
75812;PMS7003;64450;51.168;16.900;2022-11-09T16:26:09;21;16;11
75812;PMS7003;64450;51.168;16.900;2022-11-09T16:29:12;24;20;11
75812;PMS7003;64450;51.168;16.900;2022-11-09T16:32:13;15;14;8
75812;PMS7003;64450;51.168;16.900;2022-11-09T16:35:18;24;20;14
75812;PMS7003;64450;51.168;16.900;2022-11-09T16:38:19;30;25;14
75812;PMS7003;64450;51.168;16.900;2022-11-09T16:41:20;39;31;17
75812;PMS7003;64450;51.168;16.900;2022-11-09T16:44:23;37;30;17
75812;PMS7003;64450;51.168;16.900;2022-11-09T16:47:24;33;26;16
75812;PMS7003;64450;51.168;16.900;2022-11-09T16:50:27;29;26;13
75812;PMS7003;64450;51.168;16.900;2022-11-09T16:53:28;29;23;16
75812;PMS7003;64450;51.168;16.900;2022-11-09T16:56:34;31;24;14
75812;PMS7003;64450;51.168;16.900;2022-11-09T16:59:34;38;24;12
75812;PMS7003;64450;51.168;16.900;2022-11-09T17:02:35;34;22;15
75812;PMS7003;64450;51.168;16.900;2022-11-09T17:05:36;28;23;13
75812;PMS7003;64450;51.168;16.900;2022-11-09T17:08:37;21;16;11
75812;PMS7003;64450;51.168;16.900;2022-11-09T17:11:38;28;25;15
75812;PMS7003;64450;51.168;16.900;2022-11-09T17:14:39;21;18;13
75812;PMS7003;64450;51.168;16.900;2022-11-09T17:17:49;23;16;11
75812;PMS7003;64450;51.168;16.900;2022-11-09T17:20:50;19;18;9
75812;PMS7003;64450;51.168;16.900;2022-11-09T17:23:51;22;21;14
75812;PMS7003;64450;51.168;16.900;2022-11-09T17:26:53;16;15;10
75812;PMS7003;64450;51.168;16.900;2022-11-09T17:29:54;23;18;12
75812;PMS7003;64450;51.168;16.900;2022-11-09T17:32:55;27;24;15
75812;PMS7003;64450;51.168;16.900;2022-11-09T17:39:05;27;21;15
75812;PMS7003;64450;51.168;16.900;2022-11-09T17:42:06;15;14;11
75812;PMS7003;64450;51.168;16.900;2022-11-09T17:45:07;23;14;9
75812;PMS7003;64450;51.168;16.900;2022-11-09T17:48:09;24;20;15
75812;PMS7003;64450;51.168;16.900;2022-11-09T17:51:10;29;26;14
75812;PMS7003;64450;51.168;16.900;2022-11-09T17:54:12;31;26;15
75812;PMS7003;64450;51.168;16.900;2022-11-09T17:57:14;43;35;21
75812;PMS7003;64450;51.168;16.900;2022-11-09T18:00:20;33;26;15
75812;PMS7003;64450;51.168;16.900;2022-11-09T18:03:22;28;23;14
75812;PMS7003;64450;51.168;16.900;2022-11-09T18:06:23;31;24;13
75812;PMS7003;64450;51.168;16.900;2022-11-09T18:09:24;27;21;13
75812;PMS7003;64450;51.168;16.900;2022-11-09T18:12:25;24;20;14
75812;PMS7003;64450;51.168;16.900;2022-11-09T18:15:26;31;28;17
75812;PMS7003;64450;51.168;16.900;2022-11-09T18:18:27;39;30;18
75812;PMS7003;64450;51.168;16.900;2022-11-09T18:21:35;32;24;17
75812;PMS7003;64450;51.168;16.900;2022-11-09T18:24:36;36;32;16
75812;PMS7003;64450;51.168;16.900;2022-11-09T18:27:37;33;26;15
75812;PMS7003;64450;51.168;16.900;2022-11-09T18:30:38;34;29;18
75812;PMS7003;64450;51.168;16.900;2022-11-09T18:33:40;39;30;19
75812;PMS7003;64450;51.168;16.900;2022-11-09T18:36:45;32;26;18
75812;PMS7003;64450;51.168;16.900;2022-11-09T18:39:46;26;23;13
75812;PMS7003;64450;51.168;16.900;2022-11-09T18:42:51;25;20;12
75812;PMS7003;64450;51.168;16.900;2022-11-09T18:49:04;25;23;14
75812;PMS7003;64450;51.168;16.900;2022-11-09T18:52:05;25;19;14
75812;PMS7003;64450;51.168;16.900;2022-11-09T18:55:05;32;25;15
75812;PMS7003;64450;51.168;16.900;2022-11-09T18:58:12;22;19;12
75812;PMS7003;64450;51.168;16.900;2022-11-09T19:01:13;27;22;12
75812;PMS7003;64450;51.168;16.900;2022-11-09T19:04:15;32;29;15
75812;PMS7003;64450;51.168;16.900;2022-11-09T19:07:18;30;19;11
75812;PMS7003;64450;51.168;16.900;2022-11-09T19:10:19;36;26;15
75812;PMS7003;64450;51.168;16.900;2022-11-09T19:13:19;39;30;17
75812;PMS7003;64450;51.168;16.900;2022-11-09T19:16:20;34;31;17
75812;PMS7003;64450;51.168;16.900;2022-11-09T19:19:27;38;33;18
75812;PMS7003;64450;51.168;16.900;2022-11-09T19:22:28;40;28;18
75812;PMS7003;64450;51.168;16.900;2022-11-09T19:25:29;46;31;20
75812;PMS7003;64450;51.168;16.900;2022-11-09T19:28:30;39;30;17
75812;PMS7003;64450;51.168;16.900;2022-11-09T19:31:31;31;26;17
75812;PMS7003;64450;51.168;16.900;2022-11-09T19:34:32;41;32;19
75812;PMS7003;64450;51.168;16.900;2022-11-09T19:37:33;37;25;15
75812;PMS7003;64450;51.168;16.900;2022-11-09T19:40:43;37;31;19
75812;PMS7003;64450;51.168;16.900;2022-11-09T19:43:48;30;24;14
75812;PMS7003;64450;51.168;16.900;2022-11-09T19:46:50;39;29;19
75812;PMS7003;64450;51.168;16.900;2022-11-09T19:49:51;31;26;17
75812;PMS7003;64450;51.168;16.900;2022-11-09T19:52:52;28;24;16
75812;PMS7003;64450;51.168;16.900;2022-11-09T19:59:00;25;19;12
75812;PMS7003;64450;51.168;16.900;2022-11-09T20:02:05;25;20;15
75812;PMS7003;64450;51.168;16.900;2022-11-09T20:05:06;27;24;14
75812;PMS7003;64450;51.168;16.900;2022-11-09T20:08:08;38;30;16
75812;PMS7003;64450;51.168;16.900;2022-11-09T20:11:10;35;27;15
75812;PMS7003;64450;51.168;16.900;2022-11-09T20:14:24;24;23;14
75812;PMS7003;64450;51.168;16.900;2022-11-09T20:17:29;26;23;12
75812;PMS7003;64450;51.168;16.900;2022-11-09T20:20:30;23;20;15
75812;PMS7003;64450;51.168;16.900;2022-11-09T20:23:32;23;22;12
75812;PMS7003;64450;51.168;16.900;2022-11-09T20:26:32;36;26;14
75812;PMS7003;64450;51.168;16.900;2022-11-09T20:29:33;20;18;12
75812;PMS7003;64450;51.168;16.900;2022-11-09T20:32:34;25;19;12
75812;PMS7003;64450;51.168;16.900;2022-11-09T20:35:35;28;21;12
75812;PMS7003;64450;51.168;16.900;2022-11-09T20:38:45;29;23;15
75812;PMS7003;64450;51.168;16.900;2022-11-09T20:41:46;23;21;15
75812;PMS7003;64450;51.168;16.900;2022-11-09T20:44:47;32;23;15
75812;PMS7003;64450;51.168;16.900;2022-11-09T20:47:48;29;26;15
75812;PMS7003;64450;51.168;16.900;2022-11-09T20:50:49;26;18;11
75812;PMS7003;64450;51.168;16.900;2022-11-09T20:53:50;21;18;9
75812;PMS7003;64450;51.168;16.900;2022-11-09T20:56:51;29;24;15
75812;PMS7003;64450;51.168;16.900;2022-11-09T21:00:00;29;22;14
75812;PMS7003;64450;51.168;16.900;2022-11-09T21:03:01;24;20;12
75812;PMS7003;64450;51.168;16.900;2022-11-09T21:06:02;27;26;17
75812;PMS7003;64450;51.168;16.900;2022-11-09T21:09:05;32;27;15
75812;PMS7003;64450;51.168;16.900;2022-11-09T21:12:06;31;27;15
75812;PMS7003;64450;51.168;16.900;2022-11-09T21:15:21;34;26;14
75812;PMS7003;64450;51.168;16.900;2022-11-09T21:18:22;31;23;14
75812;PMS7003;64450;51.168;16.900;2022-11-09T21:21:24;32;27;14
75812;PMS7003;64450;51.168;16.900;2022-11-09T21:24:25;26;22;16
75812;PMS7003;64450;51.168;16.900;2022-11-09T21:27:38;26;18;13
75812;PMS7003;64450;51.168;16.900;2022-11-09T21:30:51;27;24;14
75812;PMS7003;64450;51.168;16.900;2022-11-09T21:33:52;36;29;19
75812;PMS7003;64450;51.168;16.900;2022-11-09T21:36:53;27;24;12
75812;PMS7003;64450;51.168;16.900;2022-11-09T21:39:55;31;22;14
75812;PMS7003;64450;51.168;16.900;2022-11-09T21:42:56;18;18;12
75812;PMS7003;64450;51.168;16.900;2022-11-09T21:46:04;26;21;13
75812;PMS7003;64450;51.168;16.900;2022-11-09T21:49:06;38;28;16
75812;PMS7003;64450;51.168;16.900;2022-11-09T21:52:08;19;19;15